Time;durP1;ratioP1;P1;durP2;ratioP2;P2;SDS_P1;SDS_P2;PMS_P1;PMS_P2;Temp;Humidity;BMP_temperature;BMP_pressure;BME280_temperature;BME280_humidity;BME280_pressure;Samples;Min_cycle;Max_cycle;Signal;HPM_P1;HPM_P2
2022/03/23 04:10:03;;;;;;;29.40;15.03;;;9.20;99.90;;;;;;2521167;23;20413;-92
2022/03/23 04:12:05;;;;;;;31.17;15.43;;;9.20;99.90;;;;;;4099211;28;20243;-92
2022/03/23 04:14:05;;;;;;;33.87;16.07;;;9.20;99.90;;;;;;4085148;29;20175;-92
2022/03/23 04:16:06;;;;;;;29.53;15.67;;;9.10;99.90;;;;;;4092707;28;20231;-92
2022/03/23 04:18:08;;;;;;;29.67;15.57;;;9.00;99.90;;;;;;4069272;29;20176;-92
2022/03/23 04:20:09;;;;;;;32.10;16.10;;;8.80;99.90;;;;;;4069530;29;20931;-92
2022/03/23 04:22:10;;;;;;;31.60;15.87;;;8.70;99.90;;;;;;4069287;29;20184;-93
2022/03/23 04:24:11;;;;;;;31.90;16.23;;;8.70;99.90;;;;;;4084701;29;20191;-93
2022/03/23 04:26:12;;;;;;;25.57;15.53;;;8.80;99.90;;;;;;4084625;29;20264;-94
2022/03/23 04:28:12;;;;;;;29.00;15.40;;;8.80;99.90;;;;;;4069211;29;20176;-92
2022/03/23 04:30:17;;;;;;;31.73;15.70;;;8.80;99.90;;;;;;4069015;29;20633;-92
2022/03/23 04:32:18;;;;;;;31.00;15.33;;;8.90;99.90;;;;;;4068834;29;20173;-92
2022/03/23 04:34:19;;;;;;;32.73;15.57;;;8.80;99.90;;;;;;4068863;29;20672;-92
2022/03/23 04:36:21;;;;;;;25.93;15.03;;;8.80;99.90;;;;;;4084730;29;20668;-94
2022/03/23 04:38:21;;;;;;;31.53;15.17;;;8.80;99.90;;;;;;4068937;29;20180;-93
2022/03/23 04:40:22;;;;;;;29.87;16.17;;;8.90;99.90;;;;;;4084815;29;20190;-93
2022/03/23 04:42:23;;;;;;;28.33;15.03;;;8.90;99.90;;;;;;4084746;29;20190;-92
2022/03/23 04:44:27;;;;;;;31.70;16.47;;;8.90;99.90;;;;;;4069199;29;20208;-92
2022/03/23 04:46:28;;;;;;;33.80;15.13;;;8.90;99.90;;;;;;4084641;29;20207;-93
2022/03/23 04:48:29;;;;;;;29.37;15.23;;;8.90;99.90;;;;;;4069210;29;20184;-93
2022/03/23 04:50:30;;;;;;;27.50;15.37;;;8.80;99.90;;;;;;4070915;29;20219;-93
2022/03/23 04:52:31;;;;;;;31.83;15.33;;;8.80;99.90;;;;;;4068876;29;20172;-92
2022/03/23 04:54:31;;;;;;;33.03;15.00;;;8.90;99.90;;;;;;4084518;29;20195;-94
2022/03/23 04:56:33;;;;;;;31.03;15.67;;;8.90;99.90;;;;;;4068576;29;20557;-94
2022/03/23 04:58:34;;;;;;;34.17;16.80;;;8.90;99.90;;;;;;4068928;29;20183;-94
2022/03/23 05:00:35;;;;;;;30.07;15.60;;;9.00;99.90;;;;;;4084321;29;20258;-92
2022/03/23 05:02:38;;;;;;;30.73;15.53;;;9.00;99.90;;;;;;4069393;29;20184;-93
2022/03/23 05:04:39;;;;;;;27.40;15.93;;;9.00;99.90;;;;;;4068764;29;20180;-93
2022/03/23 05:06:39;;;;;;;28.47;15.37;;;9.00;99.90;;;;;;4084196;29;20254;-94
2022/03/23 05:08:40;;;;;;;33.00;16.03;;;9.00;99.90;;;;;;4084400;29;20183;-93
2022/03/23 05:10:41;;;;;;;26.63;14.80;;;9.00;99.90;;;;;;4084012;29;20386;-93
2022/03/23 05:12:44;;;;;;;37.17;16.13;;;8.90;99.90;;;;;;4068571;29;20180;-93
2022/03/23 05:14:45;;;;;;;30.97;16.27;;;9.00;99.90;;;;;;4068444;29;20190;-93
2022/03/23 05:16:46;;;;;;;40.53;17.07;;;8.90;99.90;;;;;;4068753;29;20677;-92
2022/03/23 05:18:47;;;;;;;40.43;16.10;;;9.00;99.90;;;;;;4068644;29;20184;-94
2022/03/23 05:20:48;;;;;;;29.20;15.97;;;9.00;99.90;;;;;;4084662;29;20176;-93
2022/03/23 05:22:48;;;;;;;38.27;15.70;;;8.90;99.90;;;;;;4068404;29;20190;-94
2022/03/23 05:24:49;;;;;;;30.90;15.50;;;8.80;99.90;;;;;;4085712;29;20175;-92
2022/03/23 05:26:51;;;;;;;33.70;16.33;;;8.90;99.90;;;;;;4068508;29;20287;-93
2022/03/23 05:28:51;;;;;;;35.00;15.90;;;9.00;99.90;;;;;;4068662;29;20181;-92
2022/03/23 05:30:52;;;;;;;28.57;15.60;;;9.00;99.90;;;;;;4068359;29;20212;-92
2022/03/23 05:32:53;;;;;;;33.13;15.97;;;9.00;99.90;;;;;;4068447;29;20653;-92
2022/03/23 05:34:54;;;;;;;30.43;16.80;;;9.00;99.90;;;;;;4068426;29;20278;-93
2022/03/23 05:36:55;;;;;;;28.13;16.37;;;9.00;99.90;;;;;;4068260;29;20204;-93
2022/03/23 05:38:57;;;;;;;24.93;16.17;;;8.90;99.90;;;;;;4084161;29;20187;-94
2022/03/23 05:40:58;;;;;;;32.43;17.70;;;8.50;99.90;;;;;;4068167;29;20256;-93
2022/03/23 05:42:59;;;;;;;32.00;16.97;;;8.00;99.90;;;;;;4084040;29;20628;-92
2022/03/23 05:44:59;;;;;;;32.97;16.77;;;7.90;99.90;;;;;;4068745;29;20184;-93
2022/03/23 05:47:01;;;;;;;31.17;17.23;;;7.90;99.90;;;;;;4084022;28;20283;-92
2022/03/23 05:49:01;;;;;;;33.43;16.93;;;8.00;99.90;;;;;;4068634;29;20644;-92
2022/03/23 05:51:02;;;;;;;28.97;17.43;;;7.80;99.90;;;;;;4084250;29;20218;-92
2022/03/23 05:53:03;;;;;;;37.27;17.53;;;7.90;99.90;;;;;;4068675;29;20180;-93
2022/03/23 05:55:07;;;;;;;33.00;17.47;;;8.00;99.90;;;;;;4068376;29;20187;-93
2022/03/23 05:57:08;;;;;;;29.33;17.23;;;8.00;99.90;;;;;;4083884;29;20178;-94
2022/03/23 05:59:09;;;;;;;29.70;16.63;;;8.10;99.90;;;;;;4084034;29;20206;-93
2022/03/23 06:01:09;;;;;;;33.97;17.47;;;8.20;99.90;;;;;;4068357;29;20219;-93
2022/03/23 06:03:10;;;;;;;32.13;17.30;;;8.20;99.90;;;;;;4068509;29;20216;-93
2022/03/23 06:05:13;;;;;;;37.63;17.97;;;8.30;99.90;;;;;;4083947;29;20226;-92
2022/03/23 06:07:14;;;;;;;36.17;18.43;;;8.30;99.90;;;;;;4052714;29;20189;-94
2022/03/23 06:09:15;;;;;;;35.90;16.90;;;8.10;99.90;;;;;;4099867;28;20183;-92
2022/03/23 06:11:15;;;;;;;31.23;17.13;;;8.20;99.90;;;;;;4083571;29;20215;-93
2022/03/23 06:13:16;;;;;;;31.37;17.43;;;8.20;99.90;;;;;;4068343;29;20529;-94
2022/03/23 06:15:18;;;;;;;31.90;16.37;;;8.30;99.90;;;;;;4068064;29;20175;-91
2022/03/23 06:17:19;;;;;;;38.43;17.87;;;8.20;99.90;;;;;;4068291;29;20589;-91
2022/03/23 06:19:19;;;;;;;30.17;17.67;;;8.10;99.90;;;;;;4083765;29;20175;-93
2022/03/23 06:21:20;;;;;;;32.77;17.73;;;8.20;99.90;;;;;;4068126;29;20168;-92
2022/03/23 06:23:22;;;;;;;32.93;18.23;;;8.30;99.90;;;;;;4070393;29;20247;-93
2022/03/23 06:25:26;;;;;;;31.07;17.73;;;8.30;99.90;;;;;;4071673;29;20216;-92
2022/03/23 06:27:27;;;;;;;30.50;17.57;;;8.30;99.90;;;;;;4086657;29;20282;-93
2022/03/23 06:29:28;;;;;;;36.87;17.60;;;8.50;99.90;;;;;;4070966;29;20191;-93
2022/03/23 06:31:29;;;;;;;33.17;18.40;;;8.50;99.90;;;;;;4071088;29;20224;-92
2022/03/23 06:33:31;;;;;;;34.17;16.97;;;8.60;99.90;;;;;;4072035;29;20769;-93
2022/03/23 06:35:32;;;;;;;33.63;18.23;;;8.70;99.90;;;;;;4096153;29;20200;-93
2022/03/23 06:37:33;;;;;;;35.77;17.77;;;8.50;99.90;;;;;;4089484;29;20164;-92
2022/03/23 06:39:34;;;;;;;34.63;18.00;;;8.50;99.90;;;;;;4087332;29;20180;-93
2022/03/23 06:41:35;;;;;;;29.43;17.17;;;8.40;99.90;;;;;;4071946;29;20224;-92
2022/03/23 06:43:35;;;;;;;39.80;18.00;;;8.50;99.90;;;;;;4087563;29;20188;-92
2022/03/23 06:45:40;;;;;;;40.90;17.60;;;8.40;99.90;;;;;;4072944;29;20200;-93
2022/03/23 06:47:40;;;;;;;45.07;19.13;;;8.60;99.90;;;;;;4072135;29;20204;-92
2022/03/23 06:49:42;;;;;;;43.50;18.47;;;8.70;99.90;;;;;;4072789;29;20204;-92
2022/03/23 06:51:43;;;;;;;41.33;18.40;;;9.00;99.90;;;;;;4086575;29;20294;-92
2022/03/23 06:53:43;;;;;;;53.90;19.60;;;9.00;99.90;;;;;;4070758;29;20263;-92
2022/03/23 06:55:44;;;;;;;44.97;18.13;;;9.20;99.90;;;;;;4071431;29;20204;-92
2022/03/23 06:57:45;;;;;;;36.60;18.03;;;9.40;99.90;;;;;;4087929;29;20188;-92
2022/03/23 06:59:46;;;;;;;33.03;17.80;;;9.50;99.90;;;;;;4086510;29;20171;-93
2022/03/23 07:01:47;;;;;;;38.37;18.30;;;9.70;99.90;;;;;;4070774;29;20176;-93
2022/03/23 07:03:48;;;;;;;39.10;18.60;;;9.90;99.90;;;;;;4070770;29;20177;-94
2022/03/23 07:05:49;;;;;;;57.80;19.57;;;10.40;99.90;;;;;;4070187;29;20200;-92
2022/03/23 07:10:10;;;;;;;39.63;17.38;;;12.60;99.90;;;;;;4086215;29;20187;-92
2022/03/23 07:12:11;;;;;;;43.40;18.77;;;14.10;99.90;;;;;;4070550;29;20557;-93
2022/03/23 07:14:12;;;;;;;45.35;18.85;;;15.30;99.90;;;;;;4072060;29;20168;-92
2022/03/23 07:16:13;;;;;;;31.95;17.92;;;16.10;99.90;;;;;;4086790;29;20221;-93
2022/03/23 07:18:14;;;;;;;35.15;17.20;;;16.90;99.90;;;;;;4070724;29;20176;-93
2022/03/23 07:20:15;;;;;;;35.15;18.30;;;17.90;99.90;;;;;;4070405;29;20666;-94
2022/03/23 07:22:16;;;;;;;44.63;17.05;;;18.00;99.90;;;;;;4086933;29;20263;-94
2022/03/23 07:24:17;;;;;;;68.80;25.77;;;17.90;99.90;;;;;;4070591;29;20191;-95
2022/03/23 07:26:18;;;;;;;52.47;19.38;;;17.80;99.90;;;;;;4071277;29;20230;-95
2022/03/23 07:28:19;;;;;;;42.22;17.42;;;18.20;99.90;;;;;;4071641;29;20183;-94
2022/03/23 07:30:20;;;;;;;45.33;17.95;;;18.90;99.90;;;;;;4071093;29;20613;-95
2022/03/23 07:32:21;;;;;;;39.35;18.27;;;19.40;99.90;;;;;;4070465;29;20211;-95
2022/03/23 07:34:22;;;;;;;45.33;18.17;;;19.80;99.90;;;;;;4070476;29;20274;-93
2022/03/23 07:36:26;;;;;;;34.40;18.80;;;20.50;99.90;;;;;;4086572;29;20255;-95
2022/03/23 07:38:28;;;;;;;32.95;18.08;;;20.50;99.90;;;;;;4070672;29;20176;-95
2022/03/23 07:40:33;;;;;;;41.83;18.98;;;21.20;99.90;;;;;;4085808;29;20193;-95
2022/03/23 07:42:34;;;;;;;32.83;18.30;;;21.30;99.90;;;;;;4070198;29;20180;-95
2022/03/23 07:44:40;;;;;;;33.38;17.52;;;21.50;99.90;;;;;;4086754;29;20187;-95
2022/03/23 07:46:41;;;;;;;39.33;17.85;;;22.10;99.90;;;;;;4085655;29;20277;-96
2022/03/23 07:48:44;;;;;;;31.67;18.80;;;21.90;99.90;;;;;;4085866;29;20636;-95
2022/03/23 07:52:13;;;;;;;30.92;18.38;;;21.30;99.90;;;;;;4097404;29;20230;-95
2022/03/23 08:33:42;;;;;;;;;;;;;;;;;;;;;
2022/03/23 08:36:31;;;;;;;;;;;;;;;;;;;;;
2022/03/23 08:39:48;;;;;;;;;;;;;;;;;;;;;
2022/03/23 08:42:01;;;;;;;40.65;22.73;;;23.10;99.90;;;;;;4100089;28;20179;-94
2022/03/23 08:45:45;;;;;;;;;;;;;;;;;;;;;
2022/03/23 08:48:43;;;;;;;48.13;23.65;;;23.40;99.90;;;;;;4075543;29;20194;-95
2022/03/23 08:51:27;;;;;;;46.35;25.17;;;24.10;99.90;;;;;;4073955;29;20223;-95
2022/03/23 08:55:01;;;;;;;;;;;;;;;;;;;;;
2022/03/23 08:57:28;;;;;;;;;;;;;;;;;;;;;
2022/03/23 09:00:46;;;;;;;46.65;23.65;;;22.90;99.90;;;;;;4057780;29;20189;-94
2022/03/23 09:04:01;;;;;;;47.22;24.65;;;23.10;99.90;;;;;;4077097;29;20184;-94
2022/03/23 09:06:31;;;;;;;;;;;;;;;;;;;;;
2022/03/23 09:12:03;;;;;;;46.20;25.13;;;23.40;99.90;;;;;;4071099;29;20223;-94
2022/03/23 09:14:12;;;;;;;46.10;26.90;;;23.40;99.90;;;;;;4071842;29;20176;-95
2022/03/23 09:16:34;;;;;;;;;;;;;;;;;;;;;
2022/03/23 09:19:34;;;;;;;;;;;;;;;;;;;;;
2022/03/23 09:22:15;;;;;;;48.00;26.70;;;22.90;99.90;;;;;;4075544;29;20188;-96
2022/03/23 09:24:33;;;;;;;41.30;25.98;;;23.20;99.90;;;;;;4073137;29;20244;-95
2022/03/23 09:27:34;;;;;;;;;;;;;;;;;;;;;
2022/03/23 09:29:39;;;;;;;44.58;25.95;;;23.80;99.90;;;;;;4071960;29;20529;-94
2022/03/23 09:31:43;;;;;;;38.85;25.42;;;22.10;99.90;;;;;;4054684;29;20240;-93
2022/03/23 09:34:44;;;;;;;41.20;26.17;;;21.50;99.90;;;;;;4073246;29;20190;-95
2022/03/23 09:40:02;;;;;;;49.17;27.10;;;21.90;99.90;;;;;;4048176;29;20552;-95
2022/03/23 09:42:38;;;;;;;45.45;26.77;;;21.90;99.90;;;;;;4070267;29;20176;-95
2022/03/23 09:48:34;;;;;;;45.90;28.17;;;23.00;99.90;;;;;;4071671;29;20195;-95
2022/03/23 09:54:50;;;;;;;42.10;27.55;;;23.20;99.90;;;;;;4071681;29;20202;-95
2022/03/23 09:57:27;;;;;;;44.15;27.85;;;23.50;99.90;;;;;;4075670;29;20200;-93
2022/03/23 10:00:32;;;;;;;;;;;;;;;;;;;;;
2022/03/23 10:03:37;;;;;;;;;;;;;;;;;;;;;
2022/03/23 10:06:00;;;;;;;67.35;28.60;;;22.70;99.90;;;;;;4074931;29;20743;-95
2022/03/23 10:09:00;;;;;;;;;;;;;;;;;;;;;
2022/03/23 10:11:57;;;;;;;65.00;29.17;;;22.50;99.90;;;;;;4077117;29;20231;-95
2022/03/23 10:14:53;;;;;;;54.40;28.92;;;21.90;99.90;;;;;;4062090;29;20168;-94
2022/03/23 10:17:30;;;;;;;50.90;28.80;;;21.50;99.90;;;;;;4076925;29;20294;-95
2022/03/23 10:19:31;;;;;;;51.60;28.42;;;21.00;99.90;;;;;;4061001;29;20272;-95
2022/03/23 10:21:42;;;;;;;46.47;27.60;;;20.80;99.90;;;;;;4058575;29;20161;-96
2022/03/23 10:24:20;;;;;;;56.17;29.38;;;20.10;99.90;;;;;;4059349;29;20181;-95
2022/03/23 10:26:37;;;;;;;51.75;26.85;;;19.80;99.90;;;;;;4074759;29;20207;-96
2022/03/23 10:29:05;;;;;;;66.07;27.75;;;19.80;99.90;;;;;;4060826;29;20228;-95
2022/03/23 10:31:38;;;;;;;;;;;;;;;;;;;;;
2022/03/23 10:34:12;;;;;;;47.33;26.80;;;20.00;99.90;;;;;;4075305;29;20180;-94
2022/03/23 10:36:24;;;;;;;48.65;27.50;;;19.90;99.90;;;;;;4058408;29;20670;-94
2022/03/23 10:38:38;;;;;;;44.40;24.80;;;20.10;99.90;;;;;;4075619;29;20267;-95
2022/03/23 10:40:39;;;;;;;58.53;26.63;;;20.20;99.90;;;;;;4058675;29;20180;-94
2022/03/23 10:42:44;;;;;;;47.95;27.15;;;20.30;99.90;;;;;;4057982;29;20244;-94
2022/03/23 10:44:49;;;;;;;52.92;27.10;;;20.50;99.90;;;;;;4088249;29;20186;-93
2022/03/23 10:46:56;;;;;;;58.10;26.83;;;20.50;99.90;;;;;;4073108;29;20195;-94
2022/03/23 10:49:06;;;;;;;58.25;27.55;;;20.40;99.90;;;;;;4074173;29;20303;-95
2022/03/23 10:51:07;;;;;;;50.72;25.05;;;20.40;99.90;;;;;;4071560;29;20255;-95
2022/03/23 10:53:08;;;;;;;45.38;26.23;;;20.50;99.90;;;;;;4056308;29;20177;-96
2022/03/23 10:55:13;;;;;;;48.67;25.25;;;20.60;99.90;;;;;;4073822;29;20179;-94
2022/03/23 10:57:52;;;;;;;56.03;25.08;;;20.50;99.90;;;;;;4059921;29;20635;-95
2022/03/23 10:59:53;;;;;;;48.42;25.52;;;20.20;99.90;;;;;;4056584;29;20181;-94
2022/03/23 11:02:05;;;;;;;59.00;26.33;;;20.10;99.90;;;;;;4071795;29;20224;-94
2022/03/23 11:04:09;;;;;;;43.47;24.23;;;20.40;99.90;;;;;;4072610;29;20180;-95
2022/03/23 11:06:12;;;;;;;42.47;23.10;;;20.70;99.90;;;;;;4071015;29;20228;-93
2022/03/23 11:08:24;;;;;;;42.30;22.73;;;20.90;99.90;;;;;;4055953;29;20312;-94
2022/03/23 11:17:36;;;;;;;32.72;21.10;;;20.50;99.90;;;;;;4071744;29;20180;-95
2022/03/23 11:19:39;;;;;;;45.55;21.35;;;20.30;99.90;;;;;;4055732;29;20217;-95
2022/03/23 11:22:01;;;;;;;45.50;23.67;;;20.10;99.90;;;;;;4055299;29;20172;-94
2022/03/23 11:24:02;;;;;;;48.30;23.38;;;20.30;99.90;;;;;;4070422;29;20199;-94
2022/03/23 11:26:09;;;;;;;40.60;22.85;;;20.60;99.90;;;;;;4070788;29;20192;-95
2022/03/23 11:28:12;;;;;;;45.58;23.90;;;20.70;99.90;;;;;;4072882;29;20173;-94
2022/03/23 11:30:14;;;;;;;46.75;22.52;;;20.80;99.90;;;;;;4071465;29;20276;-94
2022/03/23 11:32:24;;;;;;;45.97;24.27;;;20.70;99.90;;;;;;4072271;29;20275;-94
2022/03/23 11:34:25;;;;;;;43.72;21.15;;;20.50;99.90;;;;;;4070610;29;20200;-94
2022/03/23 11:36:28;;;;;;;36.90;22.42;;;20.80;99.90;;;;;;4070154;29;20711;-94
2022/03/23 11:38:30;;;;;;;48.15;24.60;;;21.00;99.90;;;;;;4081415;29;20228;-94
2022/03/23 11:40:31;;;;;;;47.17;23.17;;;20.90;99.90;;;;;;4089776;29;20184;-94
2022/03/23 11:42:33;;;;;;;44.85;21.15;;;21.00;99.90;;;;;;4074572;29;20168;-95
2022/03/23 11:44:36;;;;;;;37.55;20.83;;;21.00;99.90;;;;;;4084917;29;20188;-94
2022/03/23 11:46:37;;;;;;;48.00;23.45;;;21.10;99.90;;;;;;4071596;29;20346;-94
2022/03/23 11:48:52;;;;;;;36.47;21.00;;;21.20;99.90;;;;;;4054953;29;20189;-94
2022/03/23 11:51:23;;;;;;;40.72;18.98;;;21.20;99.90;;;;;;4070250;29;20207;-95
2022/03/23 11:53:46;;;;;;;42.63;18.75;;;21.10;99.90;;;;;;4054837;29;20758;-94
2022/03/23 11:55:51;;;;;;;36.28;17.00;;;21.00;99.90;;;;;;4054833;29;20201;-94
2022/03/23 11:57:55;;;;;;;38.38;19.13;;;21.00;99.90;;;;;;4070068;29;20168;-94
2022/03/23 11:59:58;;;;;;;32.15;16.88;;;21.10;99.90;;;;;;4054262;29;20177;-95
2022/03/23 12:01:59;;;;;;;29.42;16.20;;;21.20;99.90;;;;;;4054485;29;20530;-94
2022/03/23 12:04:04;;;;;;;29.80;16.42;;;21.30;99.90;;;;;;4069956;29;20191;-94
2022/03/23 12:06:24;;;;;;;41.63;19.02;;;21.40;99.90;;;;;;4070105;29;20287;-94
2022/03/23 12:08:50;;;;;;;35.70;13.13;;;21.30;99.90;;;;;;4070535;29;20506;-94
2022/03/23 12:10:51;;;;;;;28.88;15.10;;;21.30;99.90;;;;;;4054079;29;20221;-95
2022/03/23 12:12:52;;;;;;;40.83;18.63;;;21.30;99.90;;;;;;4070592;29;20184;-93
2022/03/23 12:15:23;;;;;;;33.80;16.30;;;21.50;99.90;;;;;;4054426;29;20165;-95
2022/03/23 12:17:31;;;;;;;22.73;12.82;;;21.40;99.90;;;;;;4069740;29;20200;-94
2022/03/23 12:19:57;;;;;;;39.25;14.60;;;21.30;99.90;;;;;;4068696;29;20267;-94
2022/03/23 12:21:58;;;;;;;25.23;13.80;;;21.00;99.90;;;;;;4036837;29;20310;-94
2022/03/23 12:24:13;;;;;;;23.38;13.27;;;21.30;99.90;;;;;;4069466;29;20216;-95
2022/03/23 12:26:37;;;;;;;25.33;12.85;;;21.40;99.90;;;;;;4053623;29;20189;-92
2022/03/23 12:29:16;;;;;;;27.23;14.80;;;21.60;99.90;;;;;;4053803;29;20185;-93
2022/03/23 12:31:17;;;;;;;33.97;14.90;;;21.00;99.90;;;;;;4046545;29;20233;-94
2022/03/23 12:33:21;;;;;;;21.10;12.73;;;20.90;99.90;;;;;;4074131;29;20168;-94
2022/03/23 12:35:33;;;;;;;29.38;15.07;;;21.10;99.90;;;;;;4069269;29;20200;-94
2022/03/23 12:37:44;;;;;;;17.13;9.65;;;21.20;99.90;;;;;;4070189;29;20160;-95
2022/03/23 12:39:51;;;;;;;19.00;7.35;;;21.30;99.90;;;;;;4069180;29;20176;-93
2022/03/23 12:41:52;;;;;;;16.38;9.45;;;20.80;99.90;;;;;;4069784;29;20176;-93
2022/03/23 12:43:53;;;;;;;16.90;9.55;;;21.10;99.90;;;;;;4069316;29;20661;-93
2022/03/23 12:45:54;;;;;;;18.02;8.00;;;21.10;99.90;;;;;;4069352;29;20206;-94
2022/03/23 12:47:58;;;;;;;23.38;10.88;;;21.10;99.90;;;;;;4070556;29;20192;-94
2022/03/23 12:59:37;;;;;;;23.55;10.80;;;21.70;99.90;;;;;;4069017;29;20200;-93
2022/03/23 13:01:39;;;;;;;22.35;10.43;;;21.80;99.90;;;;;;4068839;29;20191;-93
2022/03/23 13:03:43;;;;;;;18.88;10.57;;;21.90;99.90;;;;;;4053999;29;20229;-93
2022/03/23 13:05:58;;;;;;;21.42;11.52;;;21.70;99.90;;;;;;4053859;29;20256;-93
2022/03/23 13:08:00;;;;;;;19.23;10.43;;;21.50;99.90;;;;;;4053179;29;20220;-93
2022/03/23 13:10:10;;;;;;;16.17;8.85;;;21.70;99.90;;;;;;4053163;29;20725;-94
2022/03/23 13:12:10;;;;;;;25.33;9.63;;;21.80;99.90;;;;;;4068672;29;20298;-94
2022/03/23 13:14:13;;;;;;;33.20;10.65;;;21.50;99.90;;;;;;4053691;29;20185;-94
2022/03/23 13:16:17;;;;;;;22.45;9.45;;;21.50;99.90;;;;;;4068723;29;20212;-94
2022/03/23 13:18:24;;;;;;;25.73;11.25;;;21.70;99.90;;;;;;4054014;29;20786;-93
2022/03/23 13:20:28;;;;;;;20.88;10.80;;;21.40;99.90;;;;;;4052810;29;20670;-94
2022/03/23 13:22:38;;;;;;;17.48;9.60;;;21.50;99.90;;;;;;4052876;29;20169;-93
2022/03/23 13:24:39;;;;;;;19.67;10.18;;;21.60;99.90;;;;;;4053061;29;20244;-93
2022/03/23 13:26:42;;;;;;;19.02;9.88;;;21.50;99.90;;;;;;4069246;29;20693;-94
2022/03/23 13:28:47;;;;;;;19.40;10.52;;;21.70;99.90;;;;;;4053362;29;20187;-94
2022/03/23 13:30:56;;;;;;;18.38;11.32;;;21.40;99.90;;;;;;4068409;29;20204;-93
2022/03/23 13:32:59;;;;;;;20.25;11.50;;;21.50;99.90;;;;;;4070806;29;20188;-94
2022/03/23 13:35:00;;;;;;;27.33;11.40;;;21.70;99.90;;;;;;4068385;29;20184;-93
2022/03/23 13:37:01;;;;;;;21.25;11.15;;;21.70;99.90;;;;;;4068615;29;20215;-93
2022/03/23 13:39:14;;;;;;;21.40;11.55;;;21.60;99.90;;;;;;4069912;29;20621;-93
2022/03/23 13:43:54;;;;;;;22.98;11.40;;;21.30;99.90;;;;;;4069328;29;20187;-93
2022/03/23 13:46:01;;;;;;;31.40;11.65;;;21.50;99.90;;;;;;4068472;29;20196;-94
2022/03/23 13:48:09;;;;;;;27.52;12.13;;;21.50;99.90;;;;;;4068372;29;20346;-94
2022/03/23 13:50:13;;;;;;;24.52;12.65;;;21.50;99.90;;;;;;4052691;29;20204;-93
2022/03/23 13:52:14;;;;;;;23.13;12.88;;;21.20;99.90;;;;;;4068623;29;20247;-95
2022/03/23 13:54:18;;;;;;;25.90;13.27;;;20.90;99.90;;;;;;4068982;29;20176;-95
2022/03/23 13:56:19;;;;;;;22.10;12.40;;;21.00;99.90;;;;;;4068426;29;20200;-93
2022/03/23 13:58:22;;;;;;;27.85;12.90;;;21.00;99.90;;;;;;4068476;29;20589;-93
2022/03/23 14:00:26;;;;;;;23.77;13.88;;;21.10;99.90;;;;;;4052754;29;20217;-94
2022/03/23 14:02:27;;;;;;;23.50;12.70;;;21.10;99.90;;;;;;4068397;29;20235;-95
2022/03/23 14:04:31;;;;;;;26.17;12.80;;;21.10;99.90;;;;;;4068209;29;20192;-94
2022/03/23 14:06:43;;;;;;;27.70;13.55;;;21.30;99.90;;;;;;4068621;29;20196;-94
2022/03/23 14:08:53;;;;;;;25.98;13.00;;;21.50;99.90;;;;;;4053678;29;20181;-94
2022/03/23 14:10:54;;;;;;;28.65;13.77;;;21.40;99.90;;;;;;4052981;29;20212;-94
2022/03/23 14:12:58;;;;;;;24.05;13.25;;;21.60;99.90;;;;;;4089463;29;20188;-94
2022/03/23 14:14:59;;;;;;;23.80;12.95;;;21.50;99.90;;;;;;4087846;29;20240;-95
2022/03/23 14:17:03;;;;;;;23.02;13.35;;;21.50;99.90;;;;;;4072297;29;20189;-95
2022/03/23 14:19:05;;;;;;;28.05;12.77;;;21.20;99.90;;;;;;4088686;29;20171;-94
2022/03/23 14:21:06;;;;;;;44.20;13.02;;;21.40;99.90;;;;;;4070453;29;20220;-93
2022/03/23 14:23:08;;;;;;;22.45;11.70;;;21.50;99.90;;;;;;4053108;29;20232;-94
2022/03/23 14:25:10;;;;;;;19.83;10.45;;;21.30;99.90;;;;;;4084613;29;20262;-94
2022/03/23 14:27:25;;;;;;;17.65;9.68;;;21.10;99.90;;;;;;4052872;29;20200;-94
2022/03/23 14:29:25;;;;;;;18.83;9.40;;;21.20;99.90;;;;;;4068295;29;20179;-94
2022/03/23 14:31:28;;;;;;;20.52;10.00;;;21.00;99.90;;;;;;4069218;29;20208;-93
2022/03/23 14:33:29;;;;;;;17.90;8.98;;;21.00;99.90;;;;;;4052967;29;20189;-94
2022/03/23 14:35:38;;;;;;;34.00;10.48;;;21.00;99.90;;;;;;4052671;29;20288;-93
2022/03/23 14:37:43;;;;;;;18.58;9.82;;;21.20;99.90;;;;;;4068119;29;20180;-96
2022/03/23 14:39:46;;;;;;;16.15;8.88;;;20.80;99.90;;;;;;4068123;29;20180;-94
2022/03/23 14:41:59;;;;;;;13.80;8.70;;;20.70;99.90;;;;;;4069705;29;20231;-93
2022/03/23 14:44:00;;;;;;;20.35;10.07;;;20.50;99.90;;;;;;4069826;29;20279;-95
2022/03/23 14:46:29;;;;;;;20.27;9.25;;;20.50;99.90;;;;;;4055253;29;20208;-94
2022/03/23 14:48:35;;;;;;;19.50;8.75;;;20.70;99.90;;;;;;4070919;29;20188;-93
2022/03/23 14:50:36;;;;;;;11.95;7.95;;;20.60;99.90;;;;;;4071849;29;20210;-93
2022/03/23 14:52:39;;;;;;;15.75;9.25;;;20.90;99.90;;;;;;4071199;29;20188;-94
2022/03/23 14:54:42;;;;;;;15.18;8.63;;;21.00;99.90;;;;;;4055488;29;20201;-94
2022/03/23 14:56:48;;;;;;;20.05;9.80;;;21.20;99.90;;;;;;4055509;29;20197;-94
2022/03/23 14:58:48;;;;;;;20.05;9.07;;;21.00;99.90;;;;;;4055579;29;20217;-93
2022/03/23 15:00:50;;;;;;;18.30;8.80;;;21.10;99.90;;;;;;4086460;29;20188;-92
2022/03/23 15:02:55;;;;;;;22.77;10.10;;;21.50;99.90;;;;;;4056369;29;20203;-93
2022/03/23 15:04:56;;;;;;;18.67;8.23;;;21.00;99.90;;;;;;4070802;29;20176;-93
2022/03/23 15:14:00;;;;;;;23.98;10.35;;;20.30;99.90;;;;;;4070120;29;20188;-93
2022/03/23 15:16:01;;;;;;;17.95;10.45;;;20.40;99.90;;;;;;4054995;29;20197;-92
2022/03/23 15:18:02;;;;;;;27.13;10.00;;;20.40;99.90;;;;;;4070382;29;20180;-93
2022/03/23 15:20:03;;;;;;;15.13;9.82;;;20.30;99.90;;;;;;4071987;29;20180;-93
2022/03/23 15:22:04;;;;;;;22.23;9.68;;;19.90;99.90;;;;;;4070321;29;20267;-94
2022/03/23 15:24:06;;;;;;;16.52;9.70;;;19.50;99.90;;;;;;4054825;29;20570;-93
2022/03/23 15:26:06;;;;;;;20.17;9.50;;;19.50;99.90;;;;;;4054798;29;20200;-93
2022/03/23 15:28:07;;;;;;;21.38;10.27;;;19.70;99.90;;;;;;4070154;29;20527;-92
2022/03/23 15:30:09;;;;;;;23.25;10.15;;;20.40;99.90;;;;;;4054717;29;20541;-94
2022/03/23 15:32:11;;;;;;;19.50;9.25;;;20.70;99.90;;;;;;4054885;29;20213;-94
2022/03/23 15:34:13;;;;;;;20.70;10.00;;;20.50;99.90;;;;;;4055848;29;20247;-94
2022/03/23 15:36:18;;;;;;;17.85;10.00;;;20.50;99.90;;;;;;4054490;29;20208;-93
2022/03/23 15:38:19;;;;;;;18.70;10.00;;;20.50;99.90;;;;;;4072967;29;20176;-94
2022/03/23 15:40:20;;;;;;;17.75;9.30;;;20.60;99.90;;;;;;4055057;29;20180;-94
2022/03/23 15:44:45;;;;;;;22.65;9.93;;;20.90;99.90;;;;;;4086523;29;20226;-92
2022/03/23 15:46:48;;;;;;;18.88;9.85;;;21.00;99.90;;;;;;4072741;29;20200;-93
2022/03/23 15:48:49;;;;;;;24.27;10.35;;;21.00;99.90;;;;;;4070261;29;20562;-93
2022/03/23 15:50:50;;;;;;;24.55;10.05;;;20.60;99.90;;;;;;4069978;29;20215;-93
2022/03/23 15:52:51;;;;;;;21.90;9.73;;;20.60;99.90;;;;;;4069964;29;20255;-94
2022/03/23 15:54:51;;;;;;;19.58;10.45;;;20.60;99.90;;;;;;4069751;29;20671;-94
2022/03/23 15:56:52;;;;;;;22.17;10.52;;;20.50;99.90;;;;;;4054453;29;20197;-93
2022/03/23 15:58:59;;;;;;;18.38;10.75;;;20.60;99.90;;;;;;4070045;29;20185;-95
2022/03/23 16:00:59;;;;;;;19.65;10.73;;;20.70;99.90;;;;;;4069437;29;20172;-93
2022/03/23 16:03:00;;;;;;;22.58;10.77;;;20.40;99.90;;;;;;4069551;29;20196;-94
2022/03/23 16:05:03;;;;;;;19.95;10.38;;;20.30;99.90;;;;;;4054411;29;20177;-94
2022/03/23 16:07:06;;;;;;;21.63;10.88;;;20.40;99.90;;;;;;4055680;29;20623;-93
2022/03/23 16:09:07;;;;;;;22.45;11.55;;;20.50;99.90;;;;;;4054760;29;20180;-93
2022/03/23 16:11:09;;;;;;;22.67;11.63;;;20.50;99.90;;;;;;4070550;29;20697;-92
2022/03/23 16:13:10;;;;;;;30.45;11.75;;;20.60;99.90;;;;;;4070082;29;20180;-93
2022/03/23 16:15:11;;;;;;;26.15;11.77;;;20.40;99.90;;;;;;4087758;29;20211;-93
2022/03/23 16:17:11;;;;;;;29.77;11.80;;;20.60;99.90;;;;;;4055578;29;20169;-94
2022/03/23 16:19:13;;;;;;;21.90;11.05;;;20.60;99.90;;;;;;4071640;29;20171;-93
2022/03/23 16:21:15;;;;;;;26.85;10.63;;;20.70;99.90;;;;;;4071807;29;20224;-94
2022/03/23 16:23:16;;;;;;;19.13;10.60;;;20.40;99.90;;;;;;4069660;29;20192;-92
2022/03/23 16:25:20;;;;;;;21.23;10.57;;;20.30;99.90;;;;;;4070006;29;20184;-95
2022/03/23 16:27:21;;;;;;;22.52;10.65;;;20.20;99.90;;;;;;4054321;29;20240;-93
2022/03/23 16:29:21;;;;;;;18.15;11.30;;;20.10;99.90;;;;;;4054451;29;20177;-95
2022/03/23 16:31:31;;;;;;;35.25;12.07;;;20.20;99.90;;;;;;4071775;29;20243;-93
2022/03/23 16:33:31;;;;;;;27.80;11.82;;;20.40;99.90;;;;;;4072324;29;20172;-94
2022/03/23 16:35:32;;;;;;;30.15;11.80;;;20.50;99.90;;;;;;4053698;29;20216;-93
2022/03/23 16:37:38;;;;;;;18.65;10.63;;;20.30;99.90;;;;;;4086019;29;20171;-92
2022/03/23 16:39:38;;;;;;;24.95;11.55;;;20.30;99.90;;;;;;4054461;29;20180;-94
2022/03/23 16:41:40;;;;;;;26.55;10.82;;;20.20;99.90;;;;;;4070074;29;20228;-93
2022/03/23 16:43:49;;;;;;;26.40;11.35;;;20.30;99.90;;;;;;4086466;29;20533;-93